Port Haywood, Virginia
Current Conditions -  °F | °C
As of 11:15 AM on Monday 26 Jan 2015 (Local Time) from KW75 Reporting Station
Overcast Overcast  
Wind Chill: 44°   Ceiling: 1800
Heat Index: 46°   Visibility: 10mi
Dew Point: 39°   Wind: 5mph
Humidity: 76%   Direction: 60°ENE
Pressure: 29.7"   Gusts: NA
Location:  37.39°N, 76.32°W
Report Text: KW75 261615Z AUTO 06004KT 10SM OVC018 08/04 A2970 RMK AO1 T00790040
Loading
Personal Weather Stations






























Interactive Weather Map New forecast layout! Learn more

10-Day Weather Forecast

Advertisements
Track Severe Weather on mobile